Date,TemperatureHighF,TemperatureAvgF,TemperatureLowF,DewpointHighF,DewpointAvgF,DewpointLowF,HumidityHigh,HumidityAvg,HumidityLow,PressureMaxIn,PressureMinIn,WindSpeedMaxMPH,WindSpeedAvgMPH,GustSpeedMaxMPH,PrecipitationSumIn
2013-5-1,49.5,37.9,32.4,35.0,25.2,21.0,73,61,49,30.45,29.78,17,8,0,0.00
2013-5-2,42.1,33.8,28.7,25.0,22.5,21.0,84,64,46,30.51,30.41,16,6,0,0.00
2013-5-3,34.3,29.9,25.4,29.0,26.2,22.0,95,86,63,30.41,30.20,11,3,0,0.09
2013-5-4,36.0,32.8,29.4,35.0,32.0,28.0,100,96,93,30.21,30.16,13,3,0,0.05
2013-5-5,49.4,38.8,33.4,41.0,36.2,31.0,100,91,71,30.19,30.07,10,2,0,0.02
2013-5-6,69.6,50.4,29.4,47.0,39.5,29.0,100,71,42,30.08,29.93,9,2,0,0.00
2013-5-7,74.0,55.7,35.0,45.0,40.3,34.0,97,62,28,29.98,29.86,12,3,0,0.00
2013-5-8,72.8,56.2,37.6,57.0,44.3,35.0,93,69,34,29.93,29.88,9,2,0,0.02
2013-5-9,53.9,43.3,32.9,47.0,34.9,26.0,86,73,53,30.15,29.91,20,7,0,0.00
2013-5-10,48.3,38.7,30.7,27.0,22.7,13.0,80,54,27,30.15,29.82,19,6,0,0.00
2013-5-11,43.2,37.8,33.4,35.0,26.6,17.0,83,65,48,30.09,29.84,30,14,0,0.01
2013-5-12,50.8,38.5,26.6,22.0,17.7,12.0,76,48,24,30.12,30.02,19,6,0,0.00
2013-5-13,54.2,42.7,26.1,34.0,24.3,17.0,81,51,27,30.07,29.60,14,4,0,0.01
2013-5-14,74.4,51.2,31.8,49.0,37.5,28.0,93,63,24,29.72,29.33,25,6,0,0.06
2013-5-15,77.2,62.8,49.4,47.0,40.3,31.0,78,49,20,29.72,29.48,22,9,0,0.00
2013-5-16,66.4,55.0,41.8,42.0,34.4,28.0,82,50,25,29.93,29.72,14,5,0,0.00
2013-5-17,59.9,51.6,44.9,36.0,34.7,32.0,68,54,39,30.02,29.93,20,8,0,0.00
2013-5-18,53.3,47.6,41.1,53.0,46.3,35.0,100,95,61,29.95,29.79,11,4,0,0.43
2013-5-19,58.6,51.4,44.8,57.0,50.8,45.0,100,98,89,29.80,29.62,31,8,0,0.37
2013-5-20,49.9,45.9,43.8,50.0,45.9,44.0,100,100,97,29.66,29.51,28,12,0,0.86
2013-5-21,49.2,45.3,42.6,46.0,44.4,43.0,100,96,86,29.75,29.58,20,9,0,1.13
2013-5-22,54.2,46.8,43.2,46.0,42.2,36.0,100,86,55,29.98,29.73,21,7,0,0.52
2013-5-23,53.5,45.2,34.0,37.0,31.0,24.0,95,61,34,30.30,30.02,14,4,0,0.00
2013-5-24,65.0,48.8,29.3,36.0,30.0,25.0,100,54,27,30.33,30.16,11,4,0,0.00
2013-5-25,57.8,49.4,39.9,39.0,35.0,31.0,81,59,45,30.24,30.17,11,4,0,0.03
2013-5-26,65.2,52.4,38.8,38.0,32.2,26.0,75,48,32,30.23,30.05,18,6,0,0.00
2013-5-27,62.7,52.5,38.8,39.0,34.8,29.0,80,53,35,30.05,29.81,18,5,0,0.00
2013-5-28,62.4,53.5,44.9,46.0,40.6,35.0,72,62,50,29.81,29.64,12,4,0,0.00
2013-5-29,74.9,59.8,42.8,61.0,51.6,38.0,98,76,49,29.71,29.59,11,3,0,0.57
2013-5-30,69.3,60.9,54.7,64.0,58.2,54.0,100,91,72,29.62,29.42,12,4,0,0.10
2013-5-31,72.5,59.3,47.6,62.0,55.6,46.0,100,89,56,29.48,29.40,25,4,0,0.66